sensor_id;sensor_type;location;lat;lon;timestamp;temperature;humidity
2967;DHT22;1493;51.496;7.210;2022-07-23T00:00:19;18.40;99.90
2967;DHT22;1493;51.496;7.210;2022-07-23T00:02:46;18.20;99.90
2967;DHT22;1493;51.496;7.210;2022-07-23T00:05:13;18.30;99.90
2967;DHT22;1493;51.496;7.210;2022-07-23T00:07:40;18.30;99.90
2967;DHT22;1493;51.496;7.210;2022-07-23T00:10:08;18.20;99.90
2967;DHT22;1493;51.496;7.210;2022-07-23T00:12:36;18.20;99.90
2967;DHT22;1493;51.496;7.210;2022-07-23T00:15:07;18.20;99.90
2967;DHT22;1493;51.496;7.210;2022-07-23T00:17:35;18.20;99.90
2967;DHT22;1493;51.496;7.210;2022-07-23T00:20:02;18.20;99.90
2967;DHT22;1493;51.496;7.210;2022-07-23T00:22:29;18.10;99.90
2967;DHT22;1493;51.496;7.210;2022-07-23T00:24:56;18.10;99.90
2967;DHT22;1493;51.496;7.210;2022-07-23T00:27:23;18.00;99.90
2967;DHT22;1493;51.496;7.210;2022-07-23T00:29:50;18.00;99.90
2967;DHT22;1493;51.496;7.210;2022-07-23T00:32:18;18.10;99.90
2967;DHT22;1493;51.496;7.210;2022-07-23T00:34:45;18.00;99.90
2967;DHT22;1493;51.496;7.210;2022-07-23T00:37:12;18.00;99.90
2967;DHT22;1493;51.496;7.210;2022-07-23T00:39:39;18.00;99.90
2967;DHT22;1493;51.496;7.210;2022-07-23T00:42:06;18.00;99.90
2967;DHT22;1493;51.496;7.210;2022-07-23T00:44:32;18.00;99.90
2967;DHT22;1493;51.496;7.210;2022-07-23T00:47:00;17.90;99.90
2967;DHT22;1493;51.496;7.210;2022-07-23T00:49:29;17.90;99.90
2967;DHT22;1493;51.496;7.210;2022-07-23T00:51:57;17.80;99.90
2967;DHT22;1493;51.496;7.210;2022-07-23T00:54:27;17.80;99.90
2967;DHT22;1493;51.496;7.210;2022-07-23T00:56:54;17.80;99.90
2967;DHT22;1493;51.496;7.210;2022-07-23T00:59:21;17.80;99.90
2967;DHT22;1493;51.496;7.210;2022-07-23T01:01:48;17.90;99.90
2967;DHT22;1493;51.496;7.210;2022-07-23T01:04:15;17.80;99.90
2967;DHT22;1493;51.496;7.210;2022-07-23T01:06:44;17.80;99.90
2967;DHT22;1493;51.496;7.210;2022-07-23T01:09:12;17.90;99.90
2967;DHT22;1493;51.496;7.210;2022-07-23T01:11:39;17.80;99.90
2967;DHT22;1493;51.496;7.210;2022-07-23T01:14:12;17.80;99.90
2967;DHT22;1493;51.496;7.210;2022-07-23T01:16:39;17.80;99.90
2967;DHT22;1493;51.496;7.210;2022-07-23T01:19:06;17.80;99.90
2967;DHT22;1493;51.496;7.210;2022-07-23T01:21:35;17.80;99.90
2967;DHT22;1493;51.496;7.210;2022-07-23T01:24:04;17.70;99.90
2967;DHT22;1493;51.496;7.210;2022-07-23T01:26:32;17.80;99.90
2967;DHT22;1493;51.496;7.210;2022-07-23T01:28:59;17.80;99.90
2967;DHT22;1493;51.496;7.210;2022-07-23T01:31:26;17.80;99.90
2967;DHT22;1493;51.496;7.210;2022-07-23T01:33:53;17.80;99.90
2967;DHT22;1493;51.496;7.210;2022-07-23T01:36:20;17.80;99.90
2967;DHT22;1493;51.496;7.210;2022-07-23T01:38:47;17.80;99.90
2967;DHT22;1493;51.496;7.210;2022-07-23T01:41:15;17.80;99.90
2967;DHT22;1493;51.496;7.210;2022-07-23T01:43:43;17.80;99.90
2967;DHT22;1493;51.496;7.210;2022-07-23T01:46:10;17.80;99.90
2967;DHT22;1493;51.496;7.210;2022-07-23T01:48:37;17.80;99.90
2967;DHT22;1493;51.496;7.210;2022-07-23T01:51:04;17.90;99.90
2967;DHT22;1493;51.496;7.210;2022-07-23T01:53:31;17.90;99.90
2967;DHT22;1493;51.496;7.210;2022-07-23T01:55:58;17.90;99.90
2967;DHT22;1493;51.496;7.210;2022-07-23T01:58:26;17.90;99.90
2967;DHT22;1493;51.496;7.210;2022-07-23T02:00:53;17.90;99.90
2967;DHT22;1493;51.496;7.210;2022-07-23T02:03:20;17.90;99.90
2967;DHT22;1493;51.496;7.210;2022-07-23T02:05:47;17.90;99.90
2967;DHT22;1493;51.496;7.210;2022-07-23T02:08:14;17.90;99.90
2967;DHT22;1493;51.496;7.210;2022-07-23T02:10:41;17.90;99.90
2967;DHT22;1493;51.496;7.210;2022-07-23T02:13:08;17.90;99.90
2967;DHT22;1493;51.496;7.210;2022-07-23T02:15:37;17.80;99.90
2967;DHT22;1493;51.496;7.210;2022-07-23T02:18:04;17.80;99.90
2967;DHT22;1493;51.496;7.210;2022-07-23T02:20:31;17.80;99.90
2967;DHT22;1493;51.496;7.210;2022-07-23T02:22:59;17.80;99.90
2967;DHT22;1493;51.496;7.210;2022-07-23T02:25:26;17.90;99.90
2967;DHT22;1493;51.496;7.210;2022-07-23T02:27:52;17.90;99.90
2967;DHT22;1493;51.496;7.210;2022-07-23T02:30:19;17.90;99.90
2967;DHT22;1493;51.496;7.210;2022-07-23T02:32:47;17.90;99.90
2967;DHT22;1493;51.496;7.210;2022-07-23T02:35:14;17.90;99.90
2967;DHT22;1493;51.496;7.210;2022-07-23T02:37:41;17.80;99.90
2967;DHT22;1493;51.496;7.210;2022-07-23T02:40:09;17.80;99.90
2967;DHT22;1493;51.496;7.210;2022-07-23T02:42:37;17.80;99.90
2967;DHT22;1493;51.496;7.210;2022-07-23T02:45:05;17.70;99.90
2967;DHT22;1493;51.496;7.210;2022-07-23T02:47:32;17.70;99.90
2967;DHT22;1493;51.496;7.210;2022-07-23T02:50:00;17.70;99.90
2967;DHT22;1493;51.496;7.210;2022-07-23T02:52:27;17.70;99.90
2967;DHT22;1493;51.496;7.210;2022-07-23T02:54:54;17.60;99.90
2967;DHT22;1493;51.496;7.210;2022-07-23T02:57:20;17.50;99.90
2967;DHT22;1493;51.496;7.210;2022-07-23T02:59:47;17.50;99.90
2967;DHT22;1493;51.496;7.210;2022-07-23T03:02:14;17.50;99.90
2967;DHT22;1493;51.496;7.210;2022-07-23T03:04:41;17.50;99.90
2967;DHT22;1493;51.496;7.210;2022-07-23T03:07:10;17.50;99.90
2967;DHT22;1493;51.496;7.210;2022-07-23T03:09:37;17.50;99.90
2967;DHT22;1493;51.496;7.210;2022-07-23T03:12:04;17.40;99.90
2967;DHT22;1493;51.496;7.210;2022-07-23T03:14:31;17.40;99.90
2967;DHT22;1493;51.496;7.210;2022-07-23T03:16:57;17.40;99.90
2967;DHT22;1493;51.496;7.210;2022-07-23T03:19:25;17.40;99.90
2967;DHT22;1493;51.496;7.210;2022-07-23T03:21:52;17.40;99.90
2967;DHT22;1493;51.496;7.210;2022-07-23T03:24:20;17.40;99.90
2967;DHT22;1493;51.496;7.210;2022-07-23T03:26:49;17.30;99.90
2967;DHT22;1493;51.496;7.210;2022-07-23T03:29:16;17.30;99.90
2967;DHT22;1493;51.496;7.210;2022-07-23T03:31:43;17.30;99.90
2967;DHT22;1493;51.496;7.210;2022-07-23T03:34:10;17.20;99.90
2967;DHT22;1493;51.496;7.210;2022-07-23T03:36:37;17.30;99.90
2967;DHT22;1493;51.496;7.210;2022-07-23T03:39:04;17.20;99.90
2967;DHT22;1493;51.496;7.210;2022-07-23T03:41:32;17.20;99.90
2967;DHT22;1493;51.496;7.210;2022-07-23T03:43:59;17.10;99.90
2967;DHT22;1493;51.496;7.210;2022-07-23T03:46:26;17.10;99.90
2967;DHT22;1493;51.496;7.210;2022-07-23T03:48:53;17.00;99.90
2967;DHT22;1493;51.496;7.210;2022-07-23T03:51:19;17.10;99.90
2967;DHT22;1493;51.496;7.210;2022-07-23T03:53:46;17.00;99.90
2967;DHT22;1493;51.496;7.210;2022-07-23T03:56:14;17.00;99.90
2967;DHT22;1493;51.496;7.210;2022-07-23T03:58:42;16.90;99.90
2967;DHT22;1493;51.496;7.210;2022-07-23T04:01:10;17.00;99.90
2967;DHT22;1493;51.496;7.210;2022-07-23T04:03:37;16.90;99.90
2967;DHT22;1493;51.496;7.210;2022-07-23T04:06:05;16.90;99.90
2967;DHT22;1493;51.496;7.210;2022-07-23T04:08:32;16.90;99.90
2967;DHT22;1493;51.496;7.210;2022-07-23T04:10:59;16.90;99.90
2967;DHT22;1493;51.496;7.210;2022-07-23T04:13:26;16.90;99.90
2967;DHT22;1493;51.496;7.210;2022-07-23T04:15:54;16.80;99.90
2967;DHT22;1493;51.496;7.210;2022-07-23T04:18:21;16.90;99.90
2967;DHT22;1493;51.496;7.210;2022-07-23T04:20:50;16.90;99.90
2967;DHT22;1493;51.496;7.210;2022-07-23T04:23:17;16.80;99.90
2967;DHT22;1493;51.496;7.210;2022-07-23T04:25:44;16.80;99.90
2967;DHT22;1493;51.496;7.210;2022-07-23T04:28:11;16.80;99.90
2967;DHT22;1493;51.496;7.210;2022-07-23T04:30:38;16.90;99.90
2967;DHT22;1493;51.496;7.210;2022-07-23T04:33:06;16.80;99.90
2967;DHT22;1493;51.496;7.210;2022-07-23T04:35:34;16.80;99.90
2967;DHT22;1493;51.496;7.210;2022-07-23T04:38:01;16.90;99.90
2967;DHT22;1493;51.496;7.210;2022-07-23T04:40:28;16.80;99.90
2967;DHT22;1493;51.496;7.210;2022-07-23T04:42:56;16.90;99.90
2967;DHT22;1493;51.496;7.210;2022-07-23T04:45:23;16.90;99.90
2967;DHT22;1493;51.496;7.210;2022-07-23T04:47:50;17.00;99.90
2967;DHT22;1493;51.496;7.210;2022-07-23T04:50:19;17.00;99.90
2967;DHT22;1493;51.496;7.210;2022-07-23T04:52:47;17.00;99.90
2967;DHT22;1493;51.496;7.210;2022-07-23T04:55:13;17.10;99.90
2967;DHT22;1493;51.496;7.210;2022-07-23T04:57:40;17.10;99.90
2967;DHT22;1493;51.496;7.210;2022-07-23T05:00:08;17.10;99.90
2967;DHT22;1493;51.496;7.210;2022-07-23T05:02:35;17.10;99.90
2967;DHT22;1493;51.496;7.210;2022-07-23T05:05:03;17.20;99.90
2967;DHT22;1493;51.496;7.210;2022-07-23T05:07:31;17.20;99.90
2967;DHT22;1493;51.496;7.210;2022-07-23T05:09:58;17.20;99.90
2967;DHT22;1493;51.496;7.210;2022-07-23T05:12:25;17.30;99.90
2967;DHT22;1493;51.496;7.210;2022-07-23T05:14:52;17.30;99.90
2967;DHT22;1493;51.496;7.210;2022-07-23T05:17:19;17.40;99.90
2967;DHT22;1493;51.496;7.210;2022-07-23T05:19:46;17.40;99.90
2967;DHT22;1493;51.496;7.210;2022-07-23T05:22:12;17.40;99.90
2967;DHT22;1493;51.496;7.210;2022-07-23T05:24:41;17.40;99.90
2967;DHT22;1493;51.496;7.210;2022-07-23T05:27:08;17.40;99.90
2967;DHT22;1493;51.496;7.210;2022-07-23T05:29:35;17.40;99.90
2967;DHT22;1493;51.496;7.210;2022-07-23T05:32:02;17.50;99.90
2967;DHT22;1493;51.496;7.210;2022-07-23T05:34:29;17.50;99.90
2967;DHT22;1493;51.496;7.210;2022-07-23T05:36:56;17.50;99.90
2967;DHT22;1493;51.496;7.210;2022-07-23T05:39:22;17.60;99.90
2967;DHT22;1493;51.496;7.210;2022-07-23T05:41:51;17.60;99.90
2967;DHT22;1493;51.496;7.210;2022-07-23T05:44:17;17.60;99.90
2967;DHT22;1493;51.496;7.210;2022-07-23T05:46:44;17.70;99.90
2967;DHT22;1493;51.496;7.210;2022-07-23T05:49:11;17.70;99.90
2967;DHT22;1493;51.496;7.210;2022-07-23T05:51:38;17.70;99.90
2967;DHT22;1493;51.496;7.210;2022-07-23T05:54:05;17.70;99.90
2967;DHT22;1493;51.496;7.210;2022-07-23T05:56:32;17.70;99.90
2967;DHT22;1493;51.496;7.210;2022-07-23T05:59:00;17.80;99.90
2967;DHT22;1493;51.496;7.210;2022-07-23T06:01:27;17.70;99.90
2967;DHT22;1493;51.496;7.210;2022-07-23T06:03:54;17.80;99.90
2967;DHT22;1493;51.496;7.210;2022-07-23T06:06:20;17.80;99.90
2967;DHT22;1493;51.496;7.210;2022-07-23T06:08:47;17.90;99.90
2967;DHT22;1493;51.496;7.210;2022-07-23T06:11:14;17.90;99.90
2967;DHT22;1493;51.496;7.210;2022-07-23T06:13:44;17.90;99.90
2967;DHT22;1493;51.496;7.210;2022-07-23T06:16:12;18.00;99.90
2967;DHT22;1493;51.496;7.210;2022-07-23T06:18:42;17.90;99.90
2967;DHT22;1493;51.496;7.210;2022-07-23T06:21:09;18.00;99.90
2967;DHT22;1493;51.496;7.210;2022-07-23T06:23:36;18.10;99.90
2967;DHT22;1493;51.496;7.210;2022-07-23T06:26:02;18.20;99.90
2967;DHT22;1493;51.496;7.210;2022-07-23T06:28:29;18.20;99.90
2967;DHT22;1493;51.496;7.210;2022-07-23T06:30:56;18.30;99.90
2967;DHT22;1493;51.496;7.210;2022-07-23T06:33:24;18.30;99.90
2967;DHT22;1493;51.496;7.210;2022-07-23T06:35:51;18.40;99.90
2967;DHT22;1493;51.496;7.210;2022-07-23T06:38:18;18.40;99.90
2967;DHT22;1493;51.496;7.210;2022-07-23T06:40:45;18.40;99.90
2967;DHT22;1493;51.496;7.210;2022-07-23T06:43:12;18.30;99.90
2967;DHT22;1493;51.496;7.210;2022-07-23T06:45:39;18.20;99.90
2967;DHT22;1493;51.496;7.210;2022-07-23T06:48:06;18.40;99.90
2967;DHT22;1493;51.496;7.210;2022-07-23T06:50:34;18.50;99.90
2967;DHT22;1493;51.496;7.210;2022-07-23T06:53:01;18.60;99.90
2967;DHT22;1493;51.496;7.210;2022-07-23T06:55:28;18.70;99.90
2967;DHT22;1493;51.496;7.210;2022-07-23T06:57:55;18.80;99.90
2967;DHT22;1493;51.496;7.210;2022-07-23T07:00:22;18.80;99.90
2967;DHT22;1493;51.496;7.210;2022-07-23T07:02:49;19.00;99.90
2967;DHT22;1493;51.496;7.210;2022-07-23T07:05:15;19.20;99.90
2967;DHT22;1493;51.496;7.210;2022-07-23T07:07:44;19.30;99.90
2967;DHT22;1493;51.496;7.210;2022-07-23T07:10:11;19.20;99.90
2967;DHT22;1493;51.496;7.210;2022-07-23T07:12:37;19.40;99.90
2967;DHT22;1493;51.496;7.210;2022-07-23T07:15:05;19.30;99.90
2967;DHT22;1493;51.496;7.210;2022-07-23T07:17:32;19.40;99.90
2967;DHT22;1493;51.496;7.210;2022-07-23T07:19:59;19.40;99.90
2967;DHT22;1493;51.496;7.210;2022-07-23T07:22:26;19.50;99.90
2967;DHT22;1493;51.496;7.210;2022-07-23T07:24:54;19.70;99.90
2967;DHT22;1493;51.496;7.210;2022-07-23T07:27:21;19.60;99.90
2967;DHT22;1493;51.496;7.210;2022-07-23T07:29:48;19.70;99.90
2967;DHT22;1493;51.496;7.210;2022-07-23T07:32:15;19.80;99.90
2967;DHT22;1493;51.496;7.210;2022-07-23T07:34:42;19.70;99.90
2967;DHT22;1493;51.496;7.210;2022-07-23T07:37:09;19.90;99.90
2967;DHT22;1493;51.496;7.210;2022-07-23T07:39:36;19.90;99.90
2967;DHT22;1493;51.496;7.210;2022-07-23T07:42:04;20.20;99.90
2967;DHT22;1493;51.496;7.210;2022-07-23T07:44:31;20.20;99.90
2967;DHT22;1493;51.496;7.210;2022-07-23T07:46:58;20.20;99.90
2967;DHT22;1493;51.496;7.210;2022-07-23T07:49:25;20.40;84.60
2967;DHT22;1493;51.496;7.210;2022-07-23T07:51:52;20.40;74.20
2967;DHT22;1493;51.496;7.210;2022-07-23T07:54:19;20.50;99.90
2967;DHT22;1493;51.496;7.210;2022-07-23T07:56:46;20.50;1.00
2967;DHT22;1493;51.496;7.210;2022-07-23T07:59:15;20.50;1.00
2967;DHT22;1493;51.496;7.210;2022-07-23T08:01:42;20.50;1.00
2967;DHT22;1493;51.496;7.210;2022-07-23T08:04:09;20.40;1.00
2967;DHT22;1493;51.496;7.210;2022-07-23T08:06:36;20.40;1.00
2967;DHT22;1493;51.496;7.210;2022-07-23T08:09:03;20.50;1.00
2967;DHT22;1493;51.496;7.210;2022-07-23T08:11:30;20.60;1.00
2967;DHT22;1493;51.496;7.210;2022-07-23T08:13:57;20.70;1.00
2967;DHT22;1493;51.496;7.210;2022-07-23T08:16:25;20.80;1.00
2967;DHT22;1493;51.496;7.210;2022-07-23T08:18:52;20.80;1.00
2967;DHT22;1493;51.496;7.210;2022-07-23T08:21:19;20.90;1.00
2967;DHT22;1493;51.496;7.210;2022-07-23T08:23:46;20.70;99.90
2967;DHT22;1493;51.496;7.210;2022-07-23T08:26:13;20.70;1.00
2967;DHT22;1493;51.496;7.210;2022-07-23T08:28:40;20.60;99.90
2967;DHT22;1493;51.496;7.210;2022-07-23T08:31:06;20.50;1.00
2967;DHT22;1493;51.496;7.210;2022-07-23T08:33:35;20.60;1.00
2967;DHT22;1493;51.496;7.210;2022-07-23T08:36:03;20.50;1.00
2967;DHT22;1493;51.496;7.210;2022-07-23T08:38:30;20.60;1.00
2967;DHT22;1493;51.496;7.210;2022-07-23T08:40:58;20.70;99.90
2967;DHT22;1493;51.496;7.210;2022-07-23T08:43:27;20.50;1.00
2967;DHT22;1493;51.496;7.210;2022-07-23T08:45:55;20.50;99.90
2967;DHT22;1493;51.496;7.210;2022-07-23T08:48:24;20.40;99.90
2967;DHT22;1493;51.496;7.210;2022-07-23T08:50:54;20.60;99.90
2967;DHT22;1493;51.496;7.210;2022-07-23T08:53:23;21.00;1.00
2967;DHT22;1493;51.496;7.210;2022-07-23T08:55:52;21.30;99.90
2967;DHT22;1493;51.496;7.210;2022-07-23T08:58:20;21.50;1.00
2967;DHT22;1493;51.496;7.210;2022-07-23T09:00:48;21.60;1.00
2967;DHT22;1493;51.496;7.210;2022-07-23T09:03:20;21.90;1.00
2967;DHT22;1493;51.496;7.210;2022-07-23T09:05:49;22.10;99.90
2967;DHT22;1493;51.496;7.210;2022-07-23T09:08:20;21.90;1.00
2967;DHT22;1493;51.496;7.210;2022-07-23T09:10:52;22.30;1.00
2967;DHT22;1493;51.496;7.210;2022-07-23T09:13:38;22.50;99.90
2967;DHT22;1493;51.496;7.210;2022-07-23T09:16:08;22.80;99.90
2967;DHT22;1493;51.496;7.210;2022-07-23T09:18:44;23.10;99.90
2967;DHT22;1493;51.496;7.210;2022-07-23T09:21:16;23.10;99.90
2967;DHT22;1493;51.496;7.210;2022-07-23T09:23:47;23.10;99.90
2967;DHT22;1493;51.496;7.210;2022-07-23T09:26:19;23.00;99.90
2967;DHT22;1493;51.496;7.210;2022-07-23T09:28:52;23.10;1.00
2967;DHT22;1493;51.496;7.210;2022-07-23T09:31:19;23.40;99.90
2967;DHT22;1493;51.496;7.210;2022-07-23T09:33:46;23.30;99.90
2967;DHT22;1493;51.496;7.210;2022-07-23T09:36:29;23.40;99.90
2967;DHT22;1493;51.496;7.210;2022-07-23T09:38:57;23.70;99.90
2967;DHT22;1493;51.496;7.210;2022-07-23T09:41:25;23.90;1.00
2967;DHT22;1493;51.496;7.210;2022-07-23T09:44:07;24.00;99.90
2967;DHT22;1493;51.496;7.210;2022-07-23T09:46:33;24.00;99.90
2967;DHT22;1493;51.496;7.210;2022-07-23T09:49:10;24.00;99.90
2967;DHT22;1493;51.496;7.210;2022-07-23T09:51:47;24.20;99.90
2967;DHT22;1493;51.496;7.210;2022-07-23T09:54:24;24.20;99.90
2967;DHT22;1493;51.496;7.210;2022-07-23T09:56:52;24.30;99.90
2967;DHT22;1493;51.496;7.210;2022-07-23T09:59:23;24.30;9.00
2967;DHT22;1493;51.496;7.210;2022-07-23T10:01:50;24.20;99.90
2967;DHT22;1493;51.496;7.210;2022-07-23T10:04:18;24.20;1.00
2967;DHT22;1493;51.496;7.210;2022-07-23T10:06:48;24.40;99.90
2967;DHT22;1493;51.496;7.210;2022-07-23T10:09:16;24.70;99.90
2967;DHT22;1493;51.496;7.210;2022-07-23T10:11:46;24.80;1.00
2967;DHT22;1493;51.496;7.210;2022-07-23T10:14:15;25.10;1.00
2967;DHT22;1493;51.496;7.210;2022-07-23T10:16:43;25.10;99.90
2967;DHT22;1493;51.496;7.210;2022-07-23T10:19:10;25.40;99.90
2967;DHT22;1493;51.496;7.210;2022-07-23T10:21:41;25.30;99.90
2967;DHT22;1493;51.496;7.210;2022-07-23T10:24:18;25.40;91.00
2967;DHT22;1493;51.496;7.210;2022-07-23T10:26:56;25.20;1.00
2967;DHT22;1493;51.496;7.210;2022-07-23T10:29:39;24.90;99.90
2967;DHT22;1493;51.496;7.210;2022-07-23T10:32:20;24.50;99.90
2967;DHT22;1493;51.496;7.210;2022-07-23T10:34:55;25.00;1.00
2967;DHT22;1493;51.496;7.210;2022-07-23T10:37:28;25.00;99.90
2967;DHT22;1493;51.496;7.210;2022-07-23T10:40:13;25.00;1.00
2967;DHT22;1493;51.496;7.210;2022-07-23T10:42:44;25.20;99.90
2967;DHT22;1493;51.496;7.210;2022-07-23T10:45:27;25.40;1.00
2967;DHT22;1493;51.496;7.210;2022-07-23T10:47:55;25.60;99.90
2967;DHT22;1493;51.496;7.210;2022-07-23T10:50:23;25.70;99.90
2967;DHT22;1493;51.496;7.210;2022-07-23T10:53:10;26.00;1.00
2967;DHT22;1493;51.496;7.210;2022-07-23T10:55:44;26.30;48.80
2967;DHT22;1493;51.496;7.210;2022-07-23T10:58:21;26.00;1.00
2967;DHT22;1493;51.496;7.210;2022-07-23T11:00:48;25.70;1.00
2967;DHT22;1493;51.496;7.210;2022-07-23T11:03:30;25.90;1.00
2967;DHT22;1493;51.496;7.210;2022-07-23T11:05:58;26.30;1.00
2967;DHT22;1493;51.496;7.210;2022-07-23T11:08:25;26.30;1.00
2967;DHT22;1493;51.496;7.210;2022-07-23T11:10:54;26.60;1.00
2967;DHT22;1493;51.496;7.210;2022-07-23T11:13:40;27.10;1.00
2967;DHT22;1493;51.496;7.210;2022-07-23T11:16:25;27.40;1.00
2967;DHT22;1493;51.496;7.210;2022-07-23T11:19:03;27.10;1.00
2967;DHT22;1493;51.496;7.210;2022-07-23T11:21:50;27.20;1.00
2967;DHT22;1493;51.496;7.210;2022-07-23T11:24:22;27.00;1.00
2967;DHT22;1493;51.496;7.210;2022-07-23T11:26:52;27.00;1.00
2967;DHT22;1493;51.496;7.210;2022-07-23T11:29:44;27.00;1.00
2967;DHT22;1493;51.496;7.210;2022-07-23T11:32:27;27.20;1.00
2967;DHT22;1493;51.496;7.210;2022-07-23T11:34:55;27.30;1.00
2967;DHT22;1493;51.496;7.210;2022-07-23T11:37:42;27.60;1.00
2967;DHT22;1493;51.496;7.210;2022-07-23T11:40:13;27.90;1.00
2967;DHT22;1493;51.496;7.210;2022-07-23T11:42:51;28.20;1.00
2967;DHT22;1493;51.496;7.210;2022-07-23T11:45:20;28.00;1.00
2967;DHT22;1493;51.496;7.210;2022-07-23T11:47:48;28.30;1.00
2967;DHT22;1493;51.496;7.210;2022-07-23T11:50:14;28.10;1.00
2967;DHT22;1493;51.496;7.210;2022-07-23T11:52:42;28.10;1.00
2967;DHT22;1493;51.496;7.210;2022-07-23T11:55:10;28.50;1.00
2967;DHT22;1493;51.496;7.210;2022-07-23T11:57:45;29.00;1.00
2967;DHT22;1493;51.496;7.210;2022-07-23T12:00:16;29.00;1.00
2967;DHT22;1493;51.496;7.210;2022-07-23T12:02:48;29.40;1.00
2967;DHT22;1493;51.496;7.210;2022-07-23T12:05:17;29.50;1.00
2967;DHT22;1493;51.496;7.210;2022-07-23T12:07:47;29.60;1.00
2967;DHT22;1493;51.496;7.210;2022-07-23T12:10:17;29.20;1.00
2967;DHT22;1493;51.496;7.210;2022-07-23T12:12:46;29.50;1.00
2967;DHT22;1493;51.496;7.210;2022-07-23T12:15:15;29.70;1.00
2967;DHT22;1493;51.496;7.210;2022-07-23T12:17:45;29.30;1.00
2967;DHT22;1493;51.496;7.210;2022-07-23T12:20:15;30.00;1.00
2967;DHT22;1493;51.496;7.210;2022-07-23T12:22:44;29.80;1.00
2967;DHT22;1493;51.496;7.210;2022-07-23T12:25:13;29.00;1.00
2967;DHT22;1493;51.496;7.210;2022-07-23T12:27:41;28.80;1.00
2967;DHT22;1493;51.496;7.210;2022-07-23T12:30:25;28.70;1.00
2967;DHT22;1493;51.496;7.210;2022-07-23T12:32:56;28.80;1.00
2967;DHT22;1493;51.496;7.210;2022-07-23T12:35:29;29.50;1.00
2967;DHT22;1493;51.496;7.210;2022-07-23T12:38:00;29.70;1.00
2967;DHT22;1493;51.496;7.210;2022-07-23T12:40:29;30.10;1.00
2967;DHT22;1493;51.496;7.210;2022-07-23T12:45:24;30.40;1.00
2967;DHT22;1493;51.496;7.210;2022-07-23T12:47:56;30.70;1.00
2967;DHT22;1493;51.496;7.210;2022-07-23T12:50:34;30.40;1.00
2967;DHT22;1493;51.496;7.210;2022-07-23T12:53:03;30.80;1.00
2967;DHT22;1493;51.496;7.210;2022-07-23T12:55:30;30.90;1.00
2967;DHT22;1493;51.496;7.210;2022-07-23T12:58:03;30.90;1.00
2967;DHT22;1493;51.496;7.210;2022-07-23T13:00:31;31.10;1.00
2967;DHT22;1493;51.496;7.210;2022-07-23T13:02:59;31.20;1.00
2967;DHT22;1493;51.496;7.210;2022-07-23T13:05:26;31.40;1.00
2967;DHT22;1493;51.496;7.210;2022-07-23T13:07:53;31.50;1.00
2967;DHT22;1493;51.496;7.210;2022-07-23T13:10:20;31.50;1.00
2967;DHT22;1493;51.496;7.210;2022-07-23T13:12:47;31.40;99.90
2967;DHT22;1493;51.496;7.210;2022-07-23T13:15:13;31.80;1.00
2967;DHT22;1493;51.496;7.210;2022-07-23T13:17:40;31.80;99.90
2967;DHT22;1493;51.496;7.210;2022-07-23T13:20:11;31.90;99.90
2967;DHT22;1493;51.496;7.210;2022-07-23T13:22:38;32.20;99.90
2967;DHT22;1493;51.496;7.210;2022-07-23T13:25:06;31.90;99.90
2967;DHT22;1493;51.496;7.210;2022-07-23T13:27:33;32.10;99.90
2967;DHT22;1493;51.496;7.210;2022-07-23T13:30:00;31.50;99.90
2967;DHT22;1493;51.496;7.210;2022-07-23T13:32:27;30.90;99.90
2967;DHT22;1493;51.496;7.210;2022-07-23T13:34:54;29.80;99.90
2967;DHT22;1493;51.496;7.210;2022-07-23T13:37:22;30.00;99.90
2967;DHT22;1493;51.496;7.210;2022-07-23T13:39:49;30.40;99.90
2967;DHT22;1493;51.496;7.210;2022-07-23T13:42:16;30.30;99.90
2967;DHT22;1493;51.496;7.210;2022-07-23T13:44:43;30.40;99.90
2967;DHT22;1493;51.496;7.210;2022-07-23T13:47:09;31.00;99.90
2967;DHT22;1493;51.496;7.210;2022-07-23T13:49:36;31.40;99.90
2967;DHT22;1493;51.496;7.210;2022-07-23T13:52:04;31.50;99.90
2967;DHT22;1493;51.496;7.210;2022-07-23T13:54:32;31.50;99.90
2967;DHT22;1493;51.496;7.210;2022-07-23T13:56:59;31.00;99.90
2967;DHT22;1493;51.496;7.210;2022-07-23T13:59:26;30.70;99.90
2967;DHT22;1493;51.496;7.210;2022-07-23T14:01:53;30.70;99.90
2967;DHT22;1493;51.496;7.210;2022-07-23T14:04:20;30.90;99.90
2967;DHT22;1493;51.496;7.210;2022-07-23T14:06:47;30.20;99.90
2967;DHT22;1493;51.496;7.210;2022-07-23T14:09:14;30.20;99.90
2967;DHT22;1493;51.496;7.210;2022-07-23T14:11:42;30.40;99.90
2967;DHT22;1493;51.496;7.210;2022-07-23T14:14:09;30.70;99.90
2967;DHT22;1493;51.496;7.210;2022-07-23T14:16:36;31.00;99.90
2967;DHT22;1493;51.496;7.210;2022-07-23T14:19:03;31.10;99.90
2967;DHT22;1493;51.496;7.210;2022-07-23T14:21:30;31.40;99.90
2967;DHT22;1493;51.496;7.210;2022-07-23T14:23:57;31.60;99.90
2967;DHT22;1493;51.496;7.210;2022-07-23T14:26:23;31.50;99.90
2967;DHT22;1493;51.496;7.210;2022-07-23T14:28:52;31.50;99.90
2967;DHT22;1493;51.496;7.210;2022-07-23T14:31:19;31.60;99.90
2967;DHT22;1493;51.496;7.210;2022-07-23T14:33:45;31.90;99.90
2967;DHT22;1493;51.496;7.210;2022-07-23T14:36:12;31.80;99.90
2967;DHT22;1493;51.496;7.210;2022-07-23T14:38:39;31.50;99.90
2967;DHT22;1493;51.496;7.210;2022-07-23T14:41:06;30.80;99.90
2967;DHT22;1493;51.496;7.210;2022-07-23T14:43:33;31.50;99.90
2967;DHT22;1493;51.496;7.210;2022-07-23T14:46:02;31.90;99.90
2967;DHT22;1493;51.496;7.210;2022-07-23T14:48:29;32.10;99.90
2967;DHT22;1493;51.496;7.210;2022-07-23T14:50:55;32.50;99.90
2967;DHT22;1493;51.496;7.210;2022-07-23T14:53:22;32.80;99.90
2967;DHT22;1493;51.496;7.210;2022-07-23T14:55:49;32.40;99.90
2967;DHT22;1493;51.496;7.210;2022-07-23T14:58:16;32.10;99.90
2967;DHT22;1493;51.496;7.210;2022-07-23T15:00:43;32.20;99.90
2967;DHT22;1493;51.496;7.210;2022-07-23T15:03:11;32.90;99.90
2967;DHT22;1493;51.496;7.210;2022-07-23T15:05:38;33.80;99.90
2967;DHT22;1493;51.496;7.210;2022-07-23T15:08:05;33.70;99.90
2967;DHT22;1493;51.496;7.210;2022-07-23T15:10:32;34.10;99.90
2967;DHT22;1493;51.496;7.210;2022-07-23T15:12:59;34.50;99.90
2967;DHT22;1493;51.496;7.210;2022-07-23T15:15:26;34.90;99.90
2967;DHT22;1493;51.496;7.210;2022-07-23T15:17:53;35.10;99.90
2967;DHT22;1493;51.496;7.210;2022-07-23T15:20:21;35.40;99.90
2967;DHT22;1493;51.496;7.210;2022-07-23T15:22:48;35.00;99.90
2967;DHT22;1493;51.496;7.210;2022-07-23T15:25:15;34.10;99.90
2967;DHT22;1493;51.496;7.210;2022-07-23T15:27:42;32.90;99.90
2967;DHT22;1493;51.496;7.210;2022-07-23T15:30:09;32.40;99.90
2967;DHT22;1493;51.496;7.210;2022-07-23T15:32:36;31.50;99.90
2967;DHT22;1493;51.496;7.210;2022-07-23T15:35:04;31.00;99.90
2967;DHT22;1493;51.496;7.210;2022-07-23T15:37:33;30.10;99.90
2967;DHT22;1493;51.496;7.210;2022-07-23T15:40:01;29.30;99.90
2967;DHT22;1493;51.496;7.210;2022-07-23T15:42:30;29.30;99.90
2967;DHT22;1493;51.496;7.210;2022-07-23T15:44:57;28.20;99.90
2967;DHT22;1493;51.496;7.210;2022-07-23T15:47:24;28.20;99.90
2967;DHT22;1493;51.496;7.210;2022-07-23T15:49:51;27.70;99.90
2967;DHT22;1493;51.496;7.210;2022-07-23T15:52:18;27.50;99.90
2967;DHT22;1493;51.496;7.210;2022-07-23T15:54:46;27.50;99.90
2967;DHT22;1493;51.496;7.210;2022-07-23T15:57:13;27.50;99.90
2967;DHT22;1493;51.496;7.210;2022-07-23T15:59:40;27.90;99.90
2967;DHT22;1493;51.496;7.210;2022-07-23T16:02:07;27.70;99.90
2967;DHT22;1493;51.496;7.210;2022-07-23T16:04:34;28.00;99.90
2967;DHT22;1493;51.496;7.210;2022-07-23T16:07:01;28.50;99.90
2967;DHT22;1493;51.496;7.210;2022-07-23T16:09:28;28.60;99.90
2967;DHT22;1493;51.496;7.210;2022-07-23T16:11:56;28.80;99.90
2967;DHT22;1493;51.496;7.210;2022-07-23T16:14:23;28.90;99.90